Página principal
METAR-TAF:

METAR-TAF

Aeroportos :

Islamabad, Paquistão

Aeroporto Internacional Benazir Bhutto

latitude: 33-37N, longitude: 073-06E, altura: 507 m

Observação actual do tempo

O boletim foi feito há 7 minutos, às 13:30 UTC
Vento 10 kt de oeste
Temperatura 27°C
Humidade 30%
Pressão 1013 hPa
Visibilidade: 8000 m
Poucas nuvensa uma altura de 13000 ft

METAR: OPRN 251330Z 27010KT 8000 FEW130 27/08 Q1013.1/29.92

Hora: 18:37 (13:37 UTC)

Previsão

O boletim foi feito há 4 horas e 37 minutos, às 09:00 UTC
Previsão válida de 25 às 12 UTC a 26 às 18 UTC
Vento 10 kt de oes-noroeste
Visibilidade: 6000 m
Nuvens dispersasa uma altura de 10000 ft
Nuvens dispersasa uma altura de 18000 ft
Tornando-se
de 25 às 19 UTC a 25 às 21 UTC
Vento 5 kt de nor-nordeste
Visibilidade: 4000 m
bruma

TAF: OPRN 250900Z 2512/2618 30010KT 6000 SCT100 SCT180 BECMG 2519/2521 03005KT 4000 HZ NSC

Observações e previsões do tempo de mais de 4000 aeroportos (mensagens METAR e TAF).

As estações disponíveis são os pontos amarelos e vermelhos sobre o mapa.

Mova o rato sobre o mapa para ver o nome da estação.

Depois clique no ponto para visualizar as observações e previsões meteorológicas.

Para alterar o mapa : clique nos botões verdes com uma cruz preta para aumentar o zoom; no botão verde com uma pitada de zoom; ou nas setas verdes para mapas adjacentes.


METAR-TAF: